Time;durP1;ratioP1;P1;durP2;ratioP2;P2;SDS_P1;SDS_P2;PMS_P1;PMS_P2;Temp;Humidity;BMP_temperature;BMP_pressure;BME280_temperature;BME280_humidity;BME280_pressure;Samples;Min_cycle;Max_cycle;Signal;HPM_P1;HPM_P2
2022/10/25 00:01:25;;;;;;;23.85;8.90;;;12.70;99.90;;;;;;5053131;28;20040;-61
2022/10/25 00:03:51;;;;;;;20.02;9.15;;;12.70;99.90;;;;;;5052571;28;20076;-61
2022/10/25 00:06:17;;;;;;;20.38;9.43;;;12.70;99.90;;;;;;5052430;28;20072;-61
2022/10/25 00:08:43;;;;;;;23.30;9.73;;;12.70;99.90;;;;;;5051781;28;20048;-61
2022/10/25 00:11:19;;;;;;;18.45;8.57;;;12.70;99.90;;;;;;5050521;28;20041;-60
2022/10/25 00:13:46;;;;;;;21.98;9.20;;;12.60;99.90;;;;;;5052119;28;20490;-61
2022/10/25 00:16:18;;;;;;;19.05;9.27;;;12.70;99.90;;;;;;5052967;28;20037;-61
2022/10/25 00:18:44;;;;;;;20.52;8.75;;;12.70;99.90;;;;;;5084155;28;20527;-61
2022/10/25 00:21:10;;;;;;;19.40;8.82;;;12.60;99.90;;;;;;5084896;28;20076;-61
2022/10/25 00:23:35;;;;;;;18.55;8.98;;;12.60;99.90;;;;;;5053206;28;20056;-61
2022/10/25 00:26:06;;;;;;;21.42;9.45;;;12.60;99.90;;;;;;5051740;28;20119;-61
2022/10/25 00:28:32;;;;;;;18.98;9.43;;;12.70;99.90;;;;;;5052941;28;20045;-61
2022/10/25 00:31:06;;;;;;;18.63;9.98;;;12.70;99.90;;;;;;5050669;28;20037;-61
2022/10/25 00:33:32;;;;;;;21.70;9.98;;;12.80;99.90;;;;;;5051435;28;20563;-61
2022/10/25 00:36:19;;;;;;;18.42;9.30;;;12.80;99.90;;;;;;5052089;28;20037;-61
2022/10/25 00:38:45;;;;;;;23.35;10.20;;;12.80;99.90;;;;;;5050761;28;20041;-61
2022/10/25 00:41:13;;;;;;;22.75;9.98;;;12.80;99.90;;;;;;5051727;28;20398;-61
2022/10/25 00:43:43;;;;;;;17.85;8.82;;;12.90;99.90;;;;;;5050897;28;20074;-61
2022/10/25 00:46:20;;;;;;;21.60;10.07;;;12.90;99.90;;;;;;5051318;28;20063;-61
2022/10/25 00:49:00;;;;;;;26.33;11.20;;;12.90;99.90;;;;;;5051890;28;20045;-61
2022/10/25 00:51:37;;;;;;;23.48;11.07;;;12.90;99.90;;;;;;5052538;28;20041;-61
2022/10/25 00:54:04;;;;;;;23.45;9.93;;;12.90;99.90;;;;;;5083637;28;20037;-61
2022/10/25 00:56:33;;;;;;;22.50;10.82;;;12.90;99.90;;;;;;5052210;28;20045;-61
2022/10/25 00:59:02;;;;;;;22.88;11.52;;;12.90;99.90;;;;;;5051936;28;20048;-61
2022/10/25 01:01:28;;;;;;;20.23;9.65;;;12.90;99.90;;;;;;5050732;28;20045;-61
2022/10/25 01:03:57;;;;;;;22.88;10.40;;;12.90;99.90;;;;;;5051546;28;20500;-61
2022/10/25 01:06:35;;;;;;;21.27;9.95;;;12.90;99.90;;;;;;5050913;28;20049;-61
2022/10/25 01:09:02;;;;;;;22.85;10.70;;;12.90;99.90;;;;;;5083490;28;20501;-61
2022/10/25 01:11:28;;;;;;;20.98;10.88;;;12.90;99.90;;;;;;5050921;28;20041;-61
2022/10/25 01:13:55;;;;;;;23.40;10.35;;;12.90;99.90;;;;;;5051433;28;20029;-61
2022/10/25 01:16:41;;;;;;;23.48;10.50;;;12.90;99.90;;;;;;5050545;28;20041;-61
2022/10/25 01:19:07;;;;;;;27.40;11.52;;;12.90;99.90;;;;;;5050749;28;20041;-61
2022/10/25 01:21:47;;;;;;;18.23;9.93;;;12.90;99.90;;;;;;5051297;28;20130;-61
2022/10/25 01:24:48;;;;;;;20.98;9.65;;;12.90;99.90;;;;;;5050763;28;20065;-61
2022/10/25 01:27:42;;;;;;;20.77;9.35;;;12.90;99.90;;;;;;5056400;28;20036;-61
2022/10/25 01:30:21;;;;;;;19.00;9.77;;;12.90;99.90;;;;;;5087330;28;20059;-61
2022/10/25 01:33:09;;;;;;;18.30;9.35;;;12.90;99.90;;;;;;5087951;28;20498;-61
2022/10/25 01:35:56;;;;;;;20.40;9.63;;;12.90;99.90;;;;;;5067398;28;20464;-61
2022/10/25 01:38:49;;;;;;;20.95;10.73;;;12.90;99.90;;;;;;5035973;28;20037;-60
2022/10/25 01:41:19;;;;;;;21.92;10.07;;;12.90;99.90;;;;;;5036199;28;20085;-61
2022/10/25 01:44:05;;;;;;;22.20;10.18;;;12.90;99.90;;;;;;5039581;28;20033;-61
2022/10/25 01:46:57;;;;;;;21.02;10.43;;;12.90;99.90;;;;;;5044304;28;20190;-61
2022/10/25 01:49:29;;;;;;;18.30;9.45;;;12.90;99.90;;;;;;5053952;28;20037;-61
2022/10/25 01:51:55;;;;;;;20.30;9.60;;;12.90;99.90;;;;;;5087461;28;20044;-61
2022/10/25 01:54:26;;;;;;;21.75;9.48;;;13.00;99.90;;;;;;5054164;28;20041;-61
2022/10/25 01:56:55;;;;;;;18.15;9.50;;;13.00;99.90;;;;;;5052968;28;20040;-61
2022/10/25 01:59:54;;;;;;;15.10;9.15;;;13.00;99.90;;;;;;5055688;28;20394;-61
2022/10/25 02:02:56;;;;;;;22.00;9.48;;;13.00;99.90;;;;;;5035563;28;20041;-61
2022/10/25 02:05:47;;;;;;;24.92;9.38;;;13.00;99.90;;;;;;5017253;28;20433;-61
2022/10/25 02:08:59;;;;;;;21.92;9.00;;;13.00;99.90;;;;;;5036128;28;20041;-61
2022/10/25 02:11:28;;;;;;;17.13;8.07;;;13.00;99.90;;;;;;5029653;28;20060;-61
2022/10/25 02:14:20;;;;;;;16.80;9.13;;;13.00;99.90;;;;;;5033945;28;20042;-61
2022/10/25 02:17:04;;;;;;;19.77;8.75;;;13.00;99.90;;;;;;5033872;28;20438;-61
2022/10/25 02:19:37;;;;;;;17.83;8.77;;;13.00;99.90;;;;;;5034370;28;20449;-61
2022/10/25 02:22:06;;;;;;;19.23;7.93;;;13.00;99.90;;;;;;5069756;28;20071;-61
2022/10/25 02:24:33;;;;;;;19.15;8.68;;;13.00;99.90;;;;;;5053325;28;20033;-61
2022/10/25 02:27:01;;;;;;;20.25;8.63;;;13.10;99.90;;;;;;5086944;28;20051;-61
2022/10/25 02:29:30;;;;;;;21.27;9.35;;;13.10;99.90;;;;;;5054942;28;20124;-61
2022/10/25 02:31:56;;;;;;;17.52;7.70;;;13.10;99.90;;;;;;5053503;28;20162;-61
2022/10/25 02:34:22;;;;;;;18.63;7.97;;;13.00;99.90;;;;;;5055093;28;20045;-61
2022/10/25 02:36:50;;;;;;;21.85;8.27;;;13.00;99.90;;;;;;5054176;28;20045;-61
2022/10/25 02:39:17;;;;;;;20.13;8.60;;;13.00;99.90;;;;;;5052755;28;20052;-61
2022/10/25 02:41:42;;;;;;;15.95;8.45;;;13.00;99.90;;;;;;5054350;28;20049;-61
2022/10/25 02:44:08;;;;;;;19.25;7.40;;;13.00;99.90;;;;;;5086781;28;20116;-61
2022/10/25 02:46:33;;;;;;;15.30;8.00;;;13.00;99.90;;;;;;5085968;28;20470;-61
2022/10/25 02:48:59;;;;;;;15.80;9.02;;;13.00;99.90;;;;;;5054309;28;20073;-61
2022/10/25 02:51:25;;;;;;;17.38;9.43;;;12.90;99.90;;;;;;5054490;28;20037;-61
2022/10/25 02:53:50;;;;;;;24.92;11.93;;;12.90;99.90;;;;;;5053161;28;20119;-61
2022/10/25 02:56:19;;;;;;;22.58;9.02;;;12.90;99.90;;;;;;5053626;28;20052;-61
2022/10/25 02:58:46;;;;;;;21.25;10.68;;;12.90;99.90;;;;;;5054102;28;20043;-61
2022/10/25 03:01:13;;;;;;;25.38;9.75;;;12.90;99.90;;;;;;5053388;28;20033;-61
2022/10/25 03:03:39;;;;;;;17.70;9.82;;;12.90;99.90;;;;;;5052906;28;20057;-61
2022/10/25 03:06:05;;;;;;;17.67;10.15;;;12.90;99.90;;;;;;5052833;28;20044;-61
2022/10/25 03:08:31;;;;;;;21.15;10.23;;;12.80;99.90;;;;;;5053462;28;20489;-61
2022/10/25 03:10:57;;;;;;;19.17;9.88;;;12.80;99.90;;;;;;5086295;28;20045;-61
2022/10/25 03:13:23;;;;;;;20.90;10.25;;;12.80;99.90;;;;;;5054162;28;20041;-61
2022/10/25 03:15:48;;;;;;;34.10;11.57;;;12.80;99.90;;;;;;5052594;28;20199;-61
2022/10/25 03:18:14;;;;;;;28.20;10.40;;;12.80;99.90;;;;;;5052741;28;20045;-61
2022/10/25 03:20:41;;;;;;;20.48;9.45;;;12.70;99.90;;;;;;5052792;28;20041;-61
2022/10/25 03:23:06;;;;;;;21.92;9.23;;;12.70;99.90;;;;;;5085147;28;20142;-61
2022/10/25 03:25:32;;;;;;;24.15;10.73;;;12.70;99.90;;;;;;5085723;28;20080;-61
2022/10/25 03:28:01;;;;;;;20.50;9.15;;;12.60;99.90;;;;;;5051431;28;20066;-61
2022/10/25 03:30:28;;;;;;;21.05;9.25;;;12.60;99.90;;;;;;5086201;28;20045;-61
2022/10/25 03:32:54;;;;;;;28.02;9.88;;;12.60;99.90;;;;;;5085656;28;20045;-61
2022/10/25 03:35:19;;;;;;;22.50;8.50;;;12.60;99.90;;;;;;5052999;28;20055;-61
2022/10/25 03:37:47;;;;;;;27.40;9.60;;;12.50;99.90;;;;;;5052941;28;20037;-61
2022/10/25 03:40:13;;;;;;;23.95;9.55;;;12.60;99.90;;;;;;5052307;28;20054;-61
2022/10/25 03:42:38;;;;;;;22.90;9.60;;;12.60;99.90;;;;;;5052686;28;20114;-61
2022/10/25 03:45:05;;;;;;;21.35;9.23;;;12.60;99.90;;;;;;5053181;28;20045;-61
2022/10/25 03:47:30;;;;;;;22.67;9.63;;;12.60;99.90;;;;;;5052263;28;20397;-61
2022/10/25 03:49:56;;;;;;;21.75;9.57;;;12.50;99.90;;;;;;5052047;28;20037;-61
2022/10/25 03:52:22;;;;;;;27.13;9.55;;;12.60;99.90;;;;;;5053303;28;20116;-61
2022/10/25 03:54:47;;;;;;;27.05;8.98;;;12.50;99.90;;;;;;5052896;28;20068;-61
2022/10/25 03:57:13;;;;;;;23.83;8.10;;;12.50;99.90;;;;;;5052433;28;20037;-61
2022/10/25 03:59:39;;;;;;;20.25;8.45;;;12.50;99.90;;;;;;5052874;28;20413;-61
2022/10/25 04:02:04;;;;;;;25.08;8.32;;;12.50;99.90;;;;;;5053029;28;20029;-61
2022/10/25 04:04:30;;;;;;;23.55;7.30;;;12.50;99.90;;;;;;5051322;28;20045;-61
2022/10/25 04:06:55;;;;;;;16.67;6.75;;;12.50;99.90;;;;;;5052288;28;20088;-61
2022/10/25 04:09:21;;;;;;;24.90;7.75;;;12.40;99.90;;;;;;5053427;28;20033;-61
2022/10/25 04:11:47;;;;;;;22.25;8.15;;;12.40;99.90;;;;;;5051797;28;20036;-61
2022/10/25 04:14:12;;;;;;;20.13;6.82;;;12.40;99.90;;;;;;5052911;28;20581;-61
2022/10/25 04:16:38;;;;;;;20.25;7.28;;;12.40;99.90;;;;;;5067847;28;20128;-61
2022/10/25 04:19:04;;;;;;;18.73;6.78;;;12.40;99.90;;;;;;5051779;28;20834;-61
2022/10/25 04:21:30;;;;;;;18.13;6.30;;;12.40;99.90;;;;;;5052788;28;20041;-61
2022/10/25 04:23:55;;;;;;;28.55;7.82;;;12.40;99.90;;;;;;5050977;28;20074;-61
2022/10/25 04:26:21;;;;;;;18.88;7.63;;;12.40;99.90;;;;;;5050665;28;20044;-61
2022/10/25 04:28:52;;;;;;;17.83;6.70;;;12.40;99.90;;;;;;5051948;28;20049;-61
2022/10/25 04:31:19;;;;;;;23.75;6.90;;;12.40;99.90;;;;;;5052145;28;20171;-61
2022/10/25 04:33:49;;;;;;;19.33;6.82;;;12.40;99.90;;;;;;5084538;28;20045;-61
2022/10/25 04:36:14;;;;;;;19.35;6.00;;;12.40;99.90;;;;;;5052496;28;20040;-60
2022/10/25 04:38:40;;;;;;;17.40;6.22;;;12.30;99.90;;;;;;5051344;28;20040;-61
2022/10/25 04:41:06;;;;;;;16.98;6.55;;;12.40;99.90;;;;;;5052345;28;20501;-61
2022/10/25 04:43:31;;;;;;;20.83;6.53;;;12.40;99.90;;;;;;5052842;28;20040;-60
2022/10/25 04:46:00;;;;;;;20.95;7.32;;;12.40;99.90;;;;;;5051182;28;20569;-61
2022/10/25 04:48:26;;;;;;;20.55;6.07;;;12.40;99.90;;;;;;5052594;28;20094;-61
2022/10/25 04:50:52;;;;;;;15.50;5.40;;;12.40;99.90;;;;;;5084041;28;20397;-61
2022/10/25 04:53:17;;;;;;;21.27;5.18;;;12.40;99.90;;;;;;5051754;28;20069;-61
2022/10/25 04:55:43;;;;;;;19.05;5.40;;;12.40;99.90;;;;;;5051633;28;20037;-61
2022/10/25 04:58:09;;;;;;;21.27;6.35;;;12.40;99.90;;;;;;5050780;28;20045;-61
2022/10/25 05:00:35;;;;;;;25.70;5.18;;;12.40;99.90;;;;;;5051579;28;20463;-61
2022/10/25 05:03:01;;;;;;;17.98;5.05;;;12.40;99.90;;;;;;5050938;28;20064;-61
2022/10/25 05:05:26;;;;;;;18.65;5.00;;;12.30;99.90;;;;;;5051885;28;20045;-61
2022/10/25 05:07:52;;;;;;;16.55;4.95;;;12.30;99.90;;;;;;5051023;28;20041;-61
2022/10/25 05:10:18;;;;;;;17.30;4.78;;;12.30;99.90;;;;;;5067641;28;20393;-61
2022/10/25 05:12:43;;;;;;;16.92;5.38;;;12.30;99.90;;;;;;5084170;28;20044;-61
2022/10/25 05:15:09;;;;;;;18.48;5.00;;;12.30;99.90;;;;;;5051141;28;20421;-61
2022/10/25 05:17:35;;;;;;;21.92;5.60;;;12.30;99.90;;;;;;5051826;28;20033;-61
2022/10/25 05:20:01;;;;;;;19.30;5.32;;;12.30;99.90;;;;;;5050622;28;20044;-61
2022/10/25 05:22:28;;;;;;;25.15;6.85;;;12.30;99.90;;;;;;5051403;28;20032;-60
2022/10/25 05:24:54;;;;;;;16.20;5.82;;;12.30;99.90;;;;;;5050069;28;20049;-60
2022/10/25 05:27:19;;;;;;;15.63;5.28;;;12.30;99.90;;;;;;5083990;28;20037;-61
2022/10/25 05:29:46;;;;;;;17.20;5.68;;;12.30;99.90;;;;;;5050769;28;20041;-61
2022/10/25 05:32:11;;;;;;;16.92;5.25;;;12.30;99.90;;;;;;5051950;28;20490;-61
2022/10/25 05:34:37;;;;;;;20.42;6.63;;;12.30;99.90;;;;;;5049564;28;20040;-60
2022/10/25 05:37:03;;;;;;;19.98;6.95;;;12.30;99.90;;;;;;5050116;28;20466;-61
2022/10/25 05:39:29;;;;;;;20.45;5.38;;;12.30;99.90;;;;;;5051964;28;20048;-61
2022/10/25 05:41:54;;;;;;;17.80;5.22;;;12.30;99.90;;;;;;5050861;28;20440;-61
2022/10/25 05:44:20;;;;;;;20.65;5.90;;;12.30;99.90;;;;;;5084241;28;20171;-61
2022/10/25 05:46:46;;;;;;;18.60;5.75;;;12.30;99.90;;;;;;5083117;28;20076;-61
2022/10/25 05:49:11;;;;;;;20.15;6.75;;;12.30;99.90;;;;;;5083272;28;20041;-61
2022/10/25 05:51:38;;;;;;;15.50;5.22;;;12.30;99.90;;;;;;5051836;28;20385;-61
2022/10/25 05:54:10;;;;;;;19.63;5.95;;;12.30;99.90;;;;;;5083757;28;20033;-61
2022/10/25 05:56:37;;;;;;;21.83;5.80;;;12.30;99.90;;;;;;5048332;28;20402;-61
2022/10/25 05:59:08;;;;;;;16.85;5.85;;;12.30;99.90;;;;;;5051471;28;20366;-61
2022/10/25 06:01:34;;;;;;;18.83;5.55;;;12.30;99.90;;;;;;5051670;28;20033;-61
2022/10/25 06:03:59;;;;;;;19.73;5.72;;;12.30;99.90;;;;;;5049658;28;20409;-61
2022/10/25 06:06:26;;;;;;;17.85;5.47;;;12.30;99.90;;;;;;5049128;28;20063;-62
2022/10/25 06:09:00;;;;;;;22.63;5.90;;;12.20;99.90;;;;;;5065826;28;20033;-62
2022/10/25 06:11:33;;;;;;;15.13;4.93;;;12.20;99.90;;;;;;5031005;28;20124;-62
2022/10/25 06:14:00;;;;;;;15.93;5.85;;;12.20;99.90;;;;;;5051229;28;20048;-62
2022/10/25 06:16:26;;;;;;;16.83;5.55;;;12.20;99.90;;;;;;5035060;28;20118;-62
2022/10/25 06:18:53;;;;;;;21.98;6.35;;;12.20;99.90;;;;;;5050306;28;20490;-62
2022/10/25 06:21:21;;;;;;;22.60;7.53;;;12.10;99.90;;;;;;5052534;28;20124;-61
2022/10/25 06:23:48;;;;;;;19.38;6.85;;;12.10;99.90;;;;;;5083598;28;20045;-61
2022/10/25 06:26:16;;;;;;;25.67;7.13;;;12.10;99.90;;;;;;5052616;28;20048;-61
2022/10/25 06:28:42;;;;;;;21.25;5.97;;;12.10;99.90;;;;;;5050701;28;20053;-62
2022/10/25 06:31:11;;;;;;;20.33;5.57;;;12.10;99.90;;;;;;5048972;28;20044;-62
2022/10/25 06:33:37;;;;;;;17.40;5.47;;;12.10;99.90;;;;;;5052837;28;20076;-62
2022/10/25 06:36:06;;;;;;;17.52;5.40;;;12.00;99.90;;;;;;5052538;28;20045;-61
2022/10/25 06:38:32;;;;;;;23.88;6.35;;;12.00;99.90;;;;;;5053305;28;20041;-61
2022/10/25 06:41:03;;;;;;;17.55;5.65;;;12.00;99.90;;;;;;5053534;28;20127;-61
2022/10/25 06:43:29;;;;;;;18.38;6.10;;;12.00;99.90;;;;;;5053477;28;20075;-61
2022/10/25 06:45:55;;;;;;;20.75;5.88;;;12.00;99.90;;;;;;5083549;28;20064;-61
2022/10/25 06:48:21;;;;;;;20.10;6.30;;;12.10;99.90;;;;;;5052673;28;20041;-61
2022/10/25 06:50:48;;;;;;;19.25;6.43;;;12.10;99.90;;;;;;5053532;28;20351;-61
2022/10/25 06:53:14;;;;;;;23.15;6.45;;;12.10;99.90;;;;;;5053935;28;20029;-62
2022/10/25 06:55:41;;;;;;;20.83;7.07;;;12.10;99.90;;;;;;5053018;28;20048;-62
2022/10/25 06:58:06;;;;;;;22.52;7.43;;;12.10;99.90;;;;;;5036456;28;20182;-61
2022/10/25 07:00:32;;;;;;;20.20;7.18;;;12.20;99.90;;;;;;5051453;28;20045;-61
2022/10/25 07:02:59;;;;;;;23.48;6.22;;;12.20;99.90;;;;;;5086071;28;20045;-61
2022/10/25 07:05:25;;;;;;;15.35;5.68;;;12.20;99.90;;;;;;5052862;28;20049;-61
2022/10/25 07:07:51;;;;;;;17.35;6.70;;;12.20;99.90;;;;;;5050602;28;20090;-61
2022/10/25 07:10:17;;;;;;;20.25;6.10;;;12.20;99.90;;;;;;5052467;28;20045;-61
2022/10/25 07:12:43;;;;;;;17.23;5.25;;;12.20;99.90;;;;;;5035638;28;20045;-61
2022/10/25 07:15:10;;;;;;;20.65;5.68;;;12.20;99.90;;;;;;5045377;28;20132;-61
2022/10/25 07:17:36;;;;;;;17.75;6.00;;;12.20;99.90;;;;;;5049277;28;20037;-62
2022/10/25 07:20:02;;;;;;;16.60;5.63;;;12.30;99.90;;;;;;5048445;28;20116;-62
2022/10/25 07:22:28;;;;;;;15.32;5.43;;;12.30;99.90;;;;;;5049404;28;20441;-61
2022/10/25 07:24:54;;;;;;;15.63;5.63;;;12.30;99.90;;;;;;5048614;28;20045;-61
2022/10/25 07:27:19;;;;;;;21.38;6.60;;;12.30;99.90;;;;;;5049807;28;20859;-61
2022/10/25 07:29:45;;;;;;;26.80;5.43;;;12.40;99.90;;;;;;5050096;28;20049;-62
2022/10/25 07:32:11;;;;;;;22.13;5.78;;;12.40;99.90;;;;;;5049170;28;20037;-62
2022/10/25 07:34:37;;;;;;;23.30;6.20;;;12.40;99.90;;;;;;5048265;28;20041;-61
2022/10/25 07:37:02;;;;;;;20.63;5.85;;;12.40;99.90;;;;;;5050577;28;20033;-63
2022/10/25 07:39:28;;;;;;;22.27;6.03;;;12.40;99.90;;;;;;5050649;28;20438;-62
2022/10/25 07:41:54;;;;;;;20.25;5.97;;;12.40;99.90;;;;;;5049166;28;20032;-61
2022/10/25 07:44:20;;;;;;;16.73;5.30;;;12.50;99.90;;;;;;5049417;28;20144;-61
2022/10/25 07:46:46;;;;;;;13.02;5.15;;;12.50;99.90;;;;;;5048638;28;20080;-61
2022/10/25 07:49:12;;;;;;;15.43;5.22;;;12.60;99.90;;;;;;5048154;28;20124;-60
2022/10/25 07:51:38;;;;;;;15.50;4.53;;;12.60;99.90;;;;;;5050071;28;20133;-61
2022/10/25 07:54:04;;;;;;;18.48;5.07;;;12.60;99.90;;;;;;5050460;28;20045;-61
2022/10/25 07:56:29;;;;;;;15.77;4.95;;;12.70;99.90;;;;;;5048442;28;20048;-61
2022/10/25 07:58:55;;;;;;;18.73;5.32;;;12.70;99.90;;;;;;5049201;28;20065;-61
2022/10/25 08:01:24;;;;;;;13.50;4.80;;;12.80;99.90;;;;;;5081057;28;20040;-61
2022/10/25 08:03:51;;;;;;;17.40;4.35;;;12.80;99.90;;;;;;5081365;28;20052;-61
2022/10/25 08:06:18;;;;;;;13.15;4.68;;;12.90;99.90;;;;;;5027031;28;20445;-62
2022/10/25 08:08:45;;;;;;;12.35;4.80;;;12.90;99.90;;;;;;5046371;28;20043;-62
2022/10/25 08:11:10;;;;;;;16.38;5.30;;;12.90;99.90;;;;;;5050850;28;20588;-61
2022/10/25 08:13:37;;;;;;;19.05;5.28;;;13.00;99.90;;;;;;5050901;28;20114;-62
2022/10/25 08:16:04;;;;;;;13.25;4.80;;;13.00;99.90;;;;;;5051111;28;20044;-62
2022/10/25 08:18:30;;;;;;;19.42;5.15;;;13.00;99.90;;;;;;5052403;28;20053;-61
2022/10/25 08:20:55;;;;;;;15.98;4.70;;;13.10;99.90;;;;;;5052666;28;20429;-61
2022/10/25 08:23:22;;;;;;;18.75;5.75;;;13.10;99.90;;;;;;5050704;28;20500;-61
2022/10/25 08:25:48;;;;;;;13.10;4.82;;;13.20;99.90;;;;;;5051267;28;20127;-61
2022/10/25 08:28:14;;;;;;;18.08;5.22;;;13.30;99.90;;;;;;5052294;28;20045;-61
2022/10/25 08:30:40;;;;;;;15.43;4.63;;;13.30;99.90;;;;;;5051117;28;20037;-61
2022/10/25 08:33:06;;;;;;;14.02;4.25;;;13.30;99.90;;;;;;5084586;28;20048;-61
2022/10/25 08:35:32;;;;;;;16.95;6.13;;;13.30;99.90;;;;;;5050337;28;20485;-61
2022/10/25 08:38:02;;;;;;;17.23;5.47;;;13.40;99.90;;;;;;5083552;28;20099;-61
2022/10/25 08:40:49;;;;;;;10.48;4.43;;;13.40;99.90;;;;;;5031343;28;20068;-61
2022/10/25 08:43:24;;;;;;;17.83;4.95;;;13.50;99.90;;;;;;5031497;28;20132;-61
2022/10/25 08:46:03;;;;;;;12.25;4.18;;;13.50;99.90;;;;;;5029829;28;20045;-61
2022/10/25 08:48:39;;;;;;;13.38;4.63;;;13.70;99.90;;;;;;5048837;28;20390;-62
2022/10/25 08:51:17;;;;;;;11.68;3.92;;;13.70;99.90;;;;;;5051358;28;20041;-62
2022/10/25 08:53:48;;;;;;;13.77;4.28;;;13.80;99.90;;;;;;5048563;28;20044;-62
2022/10/25 08:56:17;;;;;;;16.08;5.22;;;13.90;99.90;;;;;;5050924;28;20045;-62
2022/10/25 08:58:48;;;;;;;16.67;4.45;;;13.90;99.90;;;;;;5050152;28;20033;-61
2022/10/25 09:01:22;;;;;;;15.60;4.30;;;13.90;99.90;;;;;;5050682;28;20049;-62
2022/10/25 09:03:48;;;;;;;13.03;4.87;;;13.90;99.90;;;;;;5050814;28;20123;-62
2022/10/25 09:06:32;;;;;;;17.77;5.22;;;14.00;99.90;;;;;;5049696;28;20387;-61
2022/10/25 09:09:23;;;;;;;19.05;5.78;;;14.00;99.90;;;;;;5051812;28;20029;-62
2022/10/25 09:12:02;;;;;;;17.42;4.95;;;14.10;99.90;;;;;;5049737;28;20029;-61
2022/10/25 09:14:33;;;;;;;14.35;5.18;;;14.20;99.90;;;;;;5044940;28;20045;-61
2022/10/25 09:17:22;;;;;;;16.63;5.15;;;14.30;99.90;;;;;;5051150;28;20072;-61
2022/10/25 09:20:13;;;;;;;19.52;4.80;;;14.30;99.90;;;;;;5081854;28;20052;-62
2022/10/25 09:22:47;;;;;;;13.93;4.63;;;14.40;99.90;;;;;;5050240;28;20052;-62
2022/10/25 09:25:26;;;;;;;13.38;4.57;;;14.40;99.90;;;;;;5049925;28;20067;-62
2022/10/25 09:28:02;;;;;;;13.25;4.10;;;14.50;99.90;;;;;;5049851;28;20506;-62
2022/10/25 09:30:34;;;;;;;15.73;4.57;;;14.60;99.90;;;;;;5050768;28;20049;-62
2022/10/25 09:33:04;;;;;;;12.75;3.53;;;14.60;99.90;;;;;;5033670;28;20041;-62
2022/10/25 09:35:52;;;;;;;16.52;4.00;;;14.70;99.90;;;;;;5049758;28;20048;-62
2022/10/25 09:38:45;;;;;;;10.68;3.40;;;14.70;99.90;;;;;;5044242;28;20073;-61
2022/10/25 09:41:23;;;;;;;16.77;3.85;;;14.70;99.90;;;;;;5031138;28;20041;-61
2022/10/25 09:44:01;;;;;;;12.05;3.85;;;14.70;99.90;;;;;;5030099;28;20056;-62
2022/10/25 09:46:41;;;;;;;9.27;3.38;;;14.70;99.90;;;;;;5033025;28;20051;-62
2022/10/25 09:49:35;;;;;;;9.85;3.00;;;14.70;99.90;;;;;;5033867;28;20046;-61
2022/10/25 09:52:45;;;;;;;13.40;3.30;;;14.80;99.90;;;;;;5034083;28;20128;-62
2022/10/25 09:55:16;;;;;;;15.60;3.78;;;14.80;99.90;;;;;;5062841;28;20553;-62
2022/10/25 09:57:42;;;;;;;12.80;4.13;;;14.80;99.90;;;;;;5035405;28;20390;-62
2022/10/25 10:00:13;;;;;;;10.35;2.50;;;14.80;99.90;;;;;;5034029;28;20045;-61
2022/10/25 10:02:39;;;;;;;11.90;2.92;;;14.80;99.90;;;;;;5036233;28;20034;-62
2022/10/25 10:05:04;;;;;;;12.10;3.17;;;14.80;99.90;;;;;;5053937;28;20044;-61
2022/10/25 10:07:34;;;;;;;10.57;2.80;;;14.80;99.90;;;;;;5055691;28;20037;-61
2022/10/25 10:10:04;;;;;;;9.07;2.92;;;14.80;99.90;;;;;;5053182;28;20033;-61
2022/10/25 10:13:00;;;;;;;9.90;3.17;;;14.80;99.90;;;;;;5037655;28;20079;-61
2022/10/25 10:15:35;;;;;;;13.43;3.90;;;14.80;99.90;;;;;;5054897;28;20053;-61
2022/10/25 10:18:30;;;;;;;9.07;2.97;;;14.80;99.90;;;;;;5054320;28;20037;-61
2022/10/25 10:21:11;;;;;;;12.90;2.67;;;14.80;99.90;;;;;;5053328;28;20053;-61
2022/10/25 10:24:04;;;;;;;10.57;3.25;;;14.80;99.90;;;;;;5036398;28;20468;-61
2022/10/25 10:26:34;;;;;;;12.70;3.10;;;14.80;99.90;;;;;;5055144;28;20090;-62
2022/10/25 10:29:21;;;;;;;13.32;3.28;;;14.80;99.90;;;;;;5034755;28;20088;-61
2022/10/25 10:31:50;;;;;;;14.52;3.60;;;14.80;99.90;;;;;;5048001;28;20037;-61
2022/10/25 10:34:42;;;;;;;8.23;3.20;;;14.80;99.90;;;;;;5053687;28;20091;-61
2022/10/25 10:37:19;;;;;;;14.27;4.40;;;14.80;99.90;;;;;;5054069;28;20072;-62
2022/10/25 10:40:07;;;;;;;12.02;3.63;;;14.80;99.90;;;;;;5035982;28;20041;-61
2022/10/25 10:42:35;;;;;;;12.43;4.07;;;14.90;99.90;;;;;;5050154;28;20076;-61
2022/10/25 10:45:07;;;;;;;15.65;3.75;;;14.90;99.90;;;;;;5033409;28;20061;-61
2022/10/25 10:47:37;;;;;;;17.15;4.22;;;15.10;99.90;;;;;;5052876;28;20171;-62
2022/10/25 10:50:24;;;;;;;11.50;3.47;;;15.10;99.90;;;;;;5086083;28;20402;-61
2022/10/25 10:53:05;;;;;;;13.73;4.45;;;15.30;99.90;;;;;;5084184;28;20037;-61
2022/10/25 10:55:37;;;;;;;12.68;4.15;;;15.40;99.90;;;;;;5036392;28;20049;-61
2022/10/25 10:58:18;;;;;;;21.42;5.25;;;15.40;99.90;;;;;;5052175;28;20048;-61
2022/10/25 11:00:51;;;;;;;12.02;4.38;;;15.40;99.90;;;;;;5052289;28;20036;-61
2022/10/25 11:03:41;;;;;;;15.40;4.35;;;15.40;99.90;;;;;;5086066;28;20041;-61
2022/10/25 11:06:12;;;;;;;12.57;4.55;;;15.50;99.90;;;;;;5040122;28;20440;-61
2022/10/25 11:08:38;;;;;;;11.50;4.03;;;15.60;99.90;;;;;;5051855;28;20033;-61
2022/10/25 11:11:21;;;;;;;13.27;4.25;;;15.60;99.90;;;;;;5051918;28;20120;-61
2022/10/25 11:13:55;;;;;;;12.68;4.53;;;15.60;99.90;;;;;;5051275;28;20037;-61
2022/10/25 11:16:48;;;;;;;11.73;4.43;;;15.60;99.90;;;;;;5053299;28;20413;-61
2022/10/25 11:19:37;;;;;;;10.30;4.00;;;15.60;99.90;;;;;;5053502;28;20064;-61
2022/10/25 11:22:14;;;;;;;12.13;3.35;;;15.50;99.90;;;;;;5052530;28;20041;-61
2022/10/25 11:25:07;;;;;;;9.48;3.10;;;15.50;99.90;;;;;;5071792;28;20095;-60
2022/10/25 11:27:52;;;;;;;12.40;4.32;;;15.30;99.90;;;;;;5051893;28;20155;-61
2022/10/25 11:30:28;;;;;;;10.80;3.70;;;15.30;99.90;;;;;;5052740;28;20049;-61
2022/10/25 11:33:16;;;;;;;10.50;3.47;;;15.20;99.90;;;;;;5052467;28;20041;-61
2022/10/25 11:36:01;;;;;;;11.98;4.45;;;15.20;99.90;;;;;;5035537;28;20067;-61
2022/10/25 11:38:54;;;;;;;15.00;3.42;;;15.30;99.90;;;;;;5051342;28;20036;-61
2022/10/25 11:41:30;;;;;;;12.27;3.13;;;15.50;99.90;;;;;;5034937;28;20493;-61
2022/10/25 11:44:27;;;;;;;9.02;2.78;;;15.70;99.90;;;;;;5051993;28;20103;-61
2022/10/25 11:47:02;;;;;;;8.98;4.18;;;15.80;99.90;;;;;;5085489;28;20083;-61
2022/10/25 11:49:42;;;;;;;11.52;3.85;;;15.80;99.90;;;;;;5085265;28;20051;-61
2022/10/25 11:52:30;;;;;;;16.40;3.55;;;15.80;99.90;;;;;;5085447;28;20052;-61
2022/10/25 11:55:24;;;;;;;13.02;3.35;;;15.70;99.90;;;;;;5050586;28;20036;-61
2022/10/25 11:58:02;;;;;;;12.10;2.70;;;15.70;99.90;;;;;;5048863;28;20053;-61
2022/10/25 12:00:40;;;;;;;10.30;3.42;;;15.80;99.90;;;;;;5053496;28;20617;-60
2022/10/25 12:03:28;;;;;;;10.88;2.70;;;16.00;99.90;;;;;;5051367;28;20429;-61
2022/10/25 12:06:18;;;;;;;8.48;3.00;;;16.10;99.90;;;;;;5051193;28;20549;-61
2022/10/25 12:09:06;;;;;;;11.68;2.70;;;16.00;99.90;;;;;;5050775;28;20088;-61
2022/10/25 12:11:48;;;;;;;10.05;3.10;;;16.00;99.90;;;;;;5053336;28;20335;-63
2022/10/25 12:14:21;;;;;;;9.15;2.85;;;16.00;99.90;;;;;;5053473;28;20041;-63
2022/10/25 12:16:48;;;;;;;12.77;3.15;;;15.90;99.90;;;;;;5050711;28;20397;-63
2022/10/25 12:19:23;;;;;;;10.18;4.15;;;15.90;99.90;;;;;;5052059;28;20044;-63
2022/10/25 12:21:58;;;;;;;11.02;4.13;;;16.00;99.90;;;;;;5049661;28;20102;-63
2022/10/25 12:24:35;;;;;;;;;;;16.00;99.90;;;;;;5051474;28;20039;-63
2022/10/25 12:27:01;;;;;;;10.27;4.40;;;15.90;99.90;;;;;;5051340;28;20346;-64
2022/10/25 12:29:39;;;;;;;13.80;4.88;;;15.80;99.90;;;;;;5051925;28;20465;-63
2022/10/25 12:32:26;;;;;;;12.02;5.43;;;15.80;99.90;;;;;;5052363;28;20037;-64
2022/10/25 12:34:56;;;;;;;7.50;4.40;;;15.70;99.90;;;;;;5052207;28;20398;-64
2022/10/25 12:37:35;;;;;;;15.25;4.85;;;15.60;99.90;;;;;;5052041;28;20114;-63
2022/10/25 12:40:01;;;;;;;15.80;4.85;;;15.50;99.90;;;;;;5050930;28;20045;-63
2022/10/25 12:42:30;;;;;;;8.70;4.20;;;15.50;99.90;;;;;;5052696;28;20123;-63
2022/10/25 12:45:17;;;;;;;16.80;4.45;;;15.50;99.90;;;;;;5049395;28;20128;-63
2022/10/25 12:47:54;;;;;;;10.35;5.03;;;15.60;99.90;;;;;;5031047;28;20081;-67
2022/10/25 12:50:41;;;;;;;12.15;4.90;;;15.80;99.90;;;;;;5048063;28;20075;-65
2022/10/25 12:53:33;;;;;;;10.45;4.07;;;15.90;99.90;;;;;;5084683;28;20048;-65
2022/10/25 12:56:21;;;;;;;10.23;4.60;;;15.90;99.90;;;;;;5052025;28;20551;-64
2022/10/25 12:59:05;;;;;;;10.88;4.25;;;15.90;99.90;;;;;;5083315;28;20461;-64
2022/10/25 13:01:42;;;;;;;12.43;4.70;;;15.90;99.90;;;;;;5052444;28;20099;-64